Round Rock, Texas
Current Conditions -  °F | °C
As of 12:15 PM on Thursday 27 Nov 2014 (Local Time) from KEDC Reporting Station
Clear Clear  
Wind Chill: 57°   Ceiling: Unl
Heat Index: 57°   Visibility: 10mi
Dew Point: 28°   Wind: 5mph
Humidity: 33%   Direction: 70°ENE
Pressure: 30.5"   Gusts: NA
Location:  30.51°N, 97.68°W
Report Text: KEDC 271815Z AUTO 07004KT 10SM CLR 14/M02 A3050 RMK AO2
Loading
Personal Weather Stations






























Interactive Weather Map New forecast layout! Learn more

10-Day Weather Forecast

Advertisements
Track Severe Weather on mobile